createdAt,value
2018-12-01T00:00:40.442Z,32.15
2018-12-01T00:03:09.306Z,31.10
2018-12-01T00:05:38.173Z,33.73
2018-12-01T00:08:07.026Z,30.17
2018-12-01T00:10:35.919Z,31.05
2018-12-01T00:13:04.820Z,31.65
2018-12-01T00:15:33.672Z,32.15
2018-12-01T00:18:02.589Z,33.95
2018-12-01T00:20:34.639Z,31.97
2018-12-01T00:23:10.467Z,31.23
2018-12-01T00:25:39.317Z,31.05
2018-12-01T00:28:08.154Z,30.82
2018-12-01T00:30:37.074Z,33.53
2018-12-01T00:33:06.185Z,32.50
2018-12-01T00:35:35.047Z,33.28
2018-12-01T00:38:03.917Z,33.35
2018-12-01T00:40:32.866Z,30.72
2018-12-01T00:43:01.755Z,33.25
2018-12-01T00:45:30.622Z,34.13
2018-12-01T00:47:59.538Z,35.88
2018-12-01T00:50:40.272Z,32.78
2018-12-01T00:53:08.986Z,35.10
2018-12-01T00:55:49.663Z,31.35
2018-12-01T00:58:18.375Z,35.68
2018-12-01T01:00:47.174Z,35.30
2018-12-01T01:03:16.071Z,32.17
2018-12-01T01:05:44.911Z,33.25
2018-12-01T01:08:13.744Z,31.80
2018-12-01T01:10:42.672Z,34.55
2018-12-01T01:13:11.515Z,35.75
2018-12-01T01:15:40.394Z,34.78
2018-12-01T01:18:09.241Z,35.40
2018-12-01T01:20:38.150Z,35.10
2018-12-01T01:23:07.050Z,34.80
2018-12-01T01:25:35.915Z,33.48
2018-12-01T01:28:05.727Z,34.35
2018-12-01T01:30:34.725Z,37.33
2018-12-01T01:33:35.618Z,35.63
2018-12-01T01:36:04.653Z,34.10
2018-12-01T01:38:33.477Z,36.65
2018-12-01T01:41:06.466Z,32.35
2018-12-01T01:43:36.459Z,34.63
2018-12-01T01:46:05.653Z,33.33
2018-12-01T01:48:34.526Z,34.67
2018-12-01T01:51:03.459Z,32.90
2018-12-01T01:53:32.318Z,34.95
2018-12-01T01:56:01.198Z,36.33
2018-12-01T01:58:30.067Z,33.98
2018-12-01T02:00:58.981Z,33.02
2018-12-01T02:03:27.813Z,35.85
2018-12-01T02:05:56.836Z,33.67
2018-12-01T02:08:25.956Z,35.90
2018-12-01T02:10:54.851Z,34.27
2018-12-01T02:13:23.694Z,35.13
2018-12-01T02:15:52.542Z,35.03
2018-12-01T02:18:21.363Z,32.00
2018-12-01T02:20:50.266Z,33.67
2018-12-01T02:23:19.291Z,36.60
2018-12-01T02:25:48.146Z,33.85
2018-12-01T02:28:16.981Z,34.00
2018-12-01T02:30:45.927Z,37.35
2018-12-01T02:33:14.821Z,32.35
2018-12-01T02:35:43.690Z,37.15
2018-12-01T02:38:12.530Z,35.60
2018-12-01T02:40:41.467Z,38.90
2018-12-01T02:43:10.326Z,34.70
2018-12-01T02:45:56.169Z,33.10
2018-12-01T02:48:24.977Z,33.15
2018-12-01T02:50:53.888Z,36.10
2018-12-01T02:53:22.739Z,33.67
2018-12-01T02:55:51.581Z,33.38
2018-12-01T02:58:20.446Z,31.07
2018-12-01T03:00:49.338Z,33.18
2018-12-01T03:03:18.190Z,33.28
2018-12-01T03:05:47.045Z,33.90
2018-12-01T03:08:15.927Z,35.50
2018-12-01T03:10:44.802Z,34.00
2018-12-01T03:13:13.668Z,36.48
2018-12-01T03:15:42.505Z,35.70
2018-12-01T03:18:13.604Z,38.02
2018-12-01T03:20:52.107Z,37.13
2018-12-01T03:23:20.958Z,37.90
2018-12-01T03:25:49.770Z,36.65
2018-12-01T03:28:18.594Z,36.03
2018-12-01T03:30:47.631Z,37.50
2018-12-01T03:33:16.519Z,39.90
2018-12-01T03:35:45.375Z,39.27
2018-12-01T03:38:14.226Z,40.03
2018-12-01T03:40:48.008Z,40.12
2018-12-01T03:43:16.971Z,38.88
2018-12-01T03:45:46.129Z,40.50
2018-12-01T03:48:14.966Z,36.38
2018-12-01T03:50:43.851Z,38.20
2018-12-01T03:53:13.002Z,37.78
2018-12-01T03:55:41.885Z,41.60
2018-12-01T03:58:10.756Z,39.70
2018-12-01T04:00:39.629Z,37.70
2018-12-01T04:03:08.469Z,38.50
2018-12-01T04:05:37.314Z,37.17
2018-12-01T04:08:06.230Z,38.42
2018-12-01T04:10:35.089Z,37.88
2018-12-01T04:13:04.166Z,38.67
2018-12-01T04:15:44.822Z,39.05
2018-12-01T04:18:13.853Z,39.70
2018-12-01T04:20:42.741Z,40.12
2018-12-01T04:23:11.766Z,39.80
2018-12-01T04:25:40.866Z,37.95
2018-12-01T04:28:09.713Z,38.70
2018-12-01T04:30:38.616Z,38.40
2018-12-01T04:33:07.538Z,38.92
2018-12-01T04:35:36.411Z,38.05
2018-12-01T04:38:05.967Z,39.80
2018-12-01T04:40:34.901Z,40.60
2018-12-01T04:43:03.761Z,37.65
2018-12-01T04:45:32.882Z,39.13
2018-12-01T04:48:01.808Z,40.92
2018-12-01T04:50:30.767Z,39.20
2018-12-01T04:52:59.586Z,40.90
2018-12-01T04:55:28.442Z,38.78
2018-12-01T04:57:57.282Z,38.73
2018-12-01T05:00:29.769Z,41.10
2018-12-01T05:02:58.629Z,38.35
2018-12-01T05:05:27.491Z,38.30
2018-12-01T05:07:56.330Z,37.95
2018-12-01T05:10:25.266Z,39.08
2018-12-01T05:12:54.122Z,37.53
2018-12-01T05:15:22.978Z,41.05
2018-12-01T05:17:51.806Z,42.13
2018-12-01T05:20:24.387Z,41.73
2018-12-01T05:22:53.758Z,40.65
2018-12-01T05:25:22.621Z,40.88
2018-12-01T05:27:51.514Z,39.85
2018-12-01T05:30:20.441Z,40.28
2018-12-01T05:32:49.307Z,41.65
2018-12-01T05:35:20.785Z,38.05
2018-12-01T05:37:49.718Z,42.27
2018-12-01T05:40:18.735Z,42.05
2018-12-01T05:42:47.614Z,39.15
2018-12-01T05:45:18.258Z,37.25
2018-12-01T05:47:47.219Z,42.60
2018-12-01T05:50:23.792Z,38.85
2018-12-01T05:52:54.341Z,40.63
2018-12-01T05:55:23.315Z,44.93
2018-12-01T05:57:52.578Z,40.38
2018-12-01T06:00:29.774Z,43.13
2018-12-01T06:02:58.639Z,41.25
2018-12-01T06:05:27.514Z,43.42
2018-12-01T06:07:56.378Z,42.25
2018-12-01T06:10:25.400Z,41.63
2018-12-01T06:12:58.041Z,44.53
2018-12-01T06:15:26.906Z,41.00
2018-12-01T06:17:55.798Z,42.00
2018-12-01T06:20:24.750Z,41.83
2018-12-01T06:22:53.603Z,42.88
2018-12-01T06:25:23.629Z,43.00
2018-12-01T06:27:52.542Z,40.85
2018-12-01T06:30:21.598Z,42.85
2018-12-01T06:32:51.650Z,43.63
2018-12-01T06:35:20.562Z,40.33
2018-12-01T06:37:49.450Z,42.33
2018-12-01T06:40:19.946Z,39.45
2018-12-01T06:42:49.030Z,41.65
2018-12-01T06:45:18.275Z,42.98
2018-12-01T06:47:47.238Z,40.92
2018-12-01T06:50:19.796Z,43.98
2018-12-01T06:52:49.027Z,43.68
2018-12-01T06:55:17.963Z,41.37
2018-12-01T06:57:47.607Z,41.75
2018-12-01T07:00:21.229Z,42.73
2018-12-01T07:02:51.020Z,44.60
2018-12-01T07:05:19.948Z,43.73
2018-12-01T07:07:48.827Z,44.98
2018-12-01T07:10:19.363Z,43.40
2018-12-01T07:12:54.096Z,41.70
2018-12-01T07:15:26.235Z,41.35
2018-12-01T07:17:55.105Z,43.17
2018-12-01T07:20:24.042Z,39.25
2018-12-01T07:22:52.972Z,42.15
2018-12-01T07:25:21.933Z,41.95
2018-12-01T07:27:50.842Z,42.15
2018-12-01T07:30:19.830Z,44.67
2018-12-01T07:33:00.814Z,44.18
2018-12-01T07:35:29.653Z,42.33
2018-12-01T07:37:58.479Z,41.55
2018-12-01T07:40:27.406Z,42.85
2018-12-01T07:42:56.217Z,41.73
2018-12-01T07:45:25.088Z,42.73
2018-12-01T07:47:53.962Z,44.23
2018-12-01T07:50:22.897Z,39.53
2018-12-01T07:52:54.259Z,43.68
2018-12-01T07:55:23.131Z,42.60
2018-12-01T07:57:52.034Z,40.10
2018-12-01T08:00:29.643Z,41.83
2018-12-01T08:02:58.534Z,44.63
2018-12-01T08:05:27.430Z,43.55
2018-12-01T08:07:56.282Z,45.50
2018-12-01T08:10:25.214Z,44.45
2018-12-01T08:12:54.086Z,42.00
2018-12-01T08:15:24.029Z,44.15
2018-12-01T08:18:04.316Z,44.42
2018-12-01T08:20:33.267Z,46.00
2018-12-01T08:23:02.121Z,46.10
2018-12-01T08:25:31.029Z,42.00
2018-12-01T08:27:59.935Z,45.70
2018-12-01T08:30:31.078Z,42.25
2018-12-01T08:32:59.929Z,42.03
2018-12-01T08:35:29.809Z,44.58
2018-12-01T08:37:58.718Z,46.50
2018-12-01T08:40:29.291Z,45.65
2018-12-01T08:42:58.209Z,43.73
2018-12-01T08:45:27.102Z,44.90
2018-12-01T08:47:55.970Z,44.18
2018-12-01T08:50:24.946Z,43.70
2018-12-01T08:52:53.991Z,44.58
2018-12-01T08:55:24.150Z,46.05
2018-12-01T08:57:53.757Z,43.52
2018-12-01T09:00:41.701Z,43.20
2018-12-01T09:03:19.143Z,44.42
2018-12-01T09:05:48.010Z,44.55
2018-12-01T09:08:16.855Z,49.63
2018-12-01T09:10:45.750Z,47.78
2018-12-01T09:13:14.637Z,45.00
2018-12-01T09:15:43.578Z,45.03
2018-12-01T09:18:12.450Z,42.58
2018-12-01T09:20:41.410Z,45.10
2018-12-01T09:23:10.295Z,45.75
2018-12-01T09:25:39.198Z,41.60
2018-12-01T09:28:09.467Z,44.83
2018-12-01T09:30:40.770Z,44.38
2018-12-01T09:33:09.642Z,43.95
2018-12-01T09:35:38.523Z,46.33
2018-12-01T09:38:07.423Z,45.17
2018-12-01T09:40:37.365Z,41.70
2018-12-01T09:43:06.454Z,45.63
2018-12-01T09:45:35.346Z,46.10
2018-12-01T09:48:04.258Z,46.75
2018-12-01T09:50:33.179Z,45.45
2018-12-01T09:53:02.060Z,47.00
2018-12-01T09:55:31.530Z,45.90
2018-12-01T09:58:00.610Z,46.13
2018-12-01T10:00:32.753Z,47.70
2018-12-01T10:03:05.925Z,44.38
2018-12-01T10:05:34.945Z,46.30
2018-12-01T10:08:03.949Z,45.85
2018-12-01T10:10:32.866Z,47.17
2018-12-01T10:13:01.761Z,41.73
2018-12-01T10:15:33.815Z,44.05
2018-12-01T10:18:02.809Z,41.90
2018-12-01T10:20:33.322Z,43.60
2018-12-01T10:23:06.954Z,46.50
2018-12-01T10:25:47.874Z,43.45
2018-12-01T10:28:16.894Z,45.67
2018-12-01T10:30:45.798Z,46.30
2018-12-01T10:33:14.674Z,43.42
2018-12-01T10:35:43.517Z,43.15
2018-12-01T10:38:15.365Z,43.42
2018-12-01T10:40:44.338Z,42.48
2018-12-01T10:43:13.229Z,44.88
2018-12-01T10:45:42.178Z,44.27
2018-12-01T10:48:11.114Z,47.20
2018-12-01T10:50:40.310Z,44.20
2018-12-01T10:53:09.235Z,44.48
2018-12-01T10:55:38.238Z,45.65
2018-12-01T10:58:14.866Z,43.17
2018-12-01T11:00:51.010Z,44.33
2018-12-01T11:03:25.818Z,45.15
2018-12-01T11:05:55.484Z,45.63
2018-12-01T11:08:24.401Z,44.60
2018-12-01T11:10:55.395Z,46.92
2018-12-01T11:13:22.517Z,44.13
2018-12-01T11:15:51.433Z,44.70
2018-12-01T11:18:20.520Z,45.98
2018-12-01T11:20:49.554Z,44.75
2018-12-01T11:23:18.446Z,44.80
2018-12-01T11:25:47.291Z,44.73
2018-12-01T11:28:16.178Z,44.42
2018-12-01T11:30:45.082Z,46.50
2018-12-01T11:33:13.953Z,44.70
2018-12-01T11:35:42.895Z,40.38
2018-12-01T11:38:11.806Z,47.38
2018-12-01T11:40:40.733Z,44.00
2018-12-01T11:43:09.878Z,45.75
2018-12-01T11:45:38.846Z,46.58
2018-12-01T11:48:08.549Z,46.50
2018-12-01T11:50:38.779Z,46.33
2018-12-01T11:53:07.718Z,41.00
2018-12-01T11:55:36.614Z,43.43
2018-12-01T11:58:05.570Z,43.60
2018-12-01T12:00:34.759Z,49.10
2018-12-01T12:03:03.830Z,42.60
2018-12-01T12:05:32.712Z,46.40
2018-12-01T12:08:25.693Z,43.30
2018-12-01T12:10:55.141Z,47.10
2018-12-01T12:13:25.815Z,46.07
2018-12-01T12:15:55.014Z,45.23
2018-12-01T12:18:24.030Z,47.30
2018-12-01T12:20:53.062Z,44.23
2018-12-01T12:23:21.934Z,47.47
2018-12-01T12:25:50.793Z,45.40
2018-12-01T12:28:19.721Z,46.17
2018-12-01T12:30:48.692Z,45.37
2018-12-01T12:33:17.665Z,43.90
2018-12-01T12:35:46.615Z,46.90
2018-12-01T12:38:15.506Z,44.97
2018-12-01T12:40:44.442Z,46.17
2018-12-01T12:43:13.323Z,45.30
2018-12-01T12:45:42.223Z,45.70
2018-12-01T12:48:11.090Z,43.23
2018-12-01T12:50:40.003Z,45.20
2018-12-01T12:53:08.873Z,46.10
2018-12-01T12:55:37.729Z,48.70
2018-12-01T12:58:06.785Z,46.33
2018-12-01T13:00:36.479Z,49.43
2018-12-01T13:03:16.840Z,47.07
2018-12-01T13:05:46.360Z,47.40
2018-12-01T13:08:17.329Z,48.43
2018-12-01T13:10:47.214Z,44.97
2018-12-01T13:13:16.062Z,48.37
2018-12-01T13:15:44.946Z,44.53
2018-12-01T13:18:14.594Z,44.40
2018-12-01T13:20:46.046Z,46.55
2018-12-01T13:23:14.981Z,44.80
2018-12-01T13:25:43.905Z,44.80
2018-12-01T13:28:19.262Z,47.47
2018-12-01T13:30:52.067Z,46.33
2018-12-01T13:33:21.014Z,49.35
2018-12-01T13:35:50.026Z,44.00
2018-12-01T13:38:18.988Z,49.87
2018-12-01T13:40:47.914Z,45.83
2018-12-01T13:43:16.764Z,45.97
2018-12-01T13:45:45.681Z,45.27
2018-12-01T13:48:14.689Z,43.97
2018-12-01T13:50:43.779Z,45.67
2018-12-01T13:53:13.809Z,46.30
2018-12-01T13:55:42.780Z,44.60
2018-12-01T13:58:11.675Z,46.70
2018-12-01T14:00:41.109Z,46.80
2018-12-01T14:03:10.341Z,49.73
2018-12-01T14:05:41.034Z,47.40
2018-12-01T14:08:10.254Z,47.83
2018-12-01T14:10:41.763Z,45.38
2018-12-01T14:13:13.047Z,47.35
2018-12-01T14:15:42.075Z,44.03
2018-12-01T14:18:11.649Z,44.33
2018-12-01T14:20:40.687Z,48.03
2018-12-01T14:23:09.609Z,48.78
2018-12-01T14:25:38.507Z,47.40
2018-12-01T14:28:10.550Z,51.60
2018-12-01T14:30:39.462Z,46.47
2018-12-01T14:33:09.982Z,47.90
2018-12-01T14:35:39.065Z,46.50
2018-12-01T14:38:15.598Z,48.02
2018-12-01T14:40:46.241Z,48.68
2018-12-01T14:43:15.874Z,44.30
2018-12-01T14:45:47.703Z,45.63
2018-12-01T14:48:16.607Z,44.58
2018-12-01T14:50:48.590Z,45.58
2018-12-01T14:53:26.263Z,44.40
2018-12-01T14:55:55.189Z,45.98
2018-12-01T14:58:24.058Z,45.05
2018-12-01T15:00:52.978Z,47.73
2018-12-01T15:03:21.877Z,45.03
2018-12-01T15:05:50.754Z,44.38
2018-12-01T15:08:19.661Z,49.85
2018-12-01T15:10:48.626Z,47.83
2018-12-01T15:13:17.527Z,45.48
2018-12-01T15:15:46.413Z,44.27
2018-12-01T15:18:15.278Z,46.18
2018-12-01T15:20:44.217Z,43.35
2018-12-01T15:23:13.107Z,44.93
2018-12-01T15:25:42.042Z,44.50
2018-12-01T15:28:10.942Z,46.37
2018-12-01T15:30:39.860Z,48.02
2018-12-01T15:33:12.437Z,44.85
2018-12-01T15:35:43.268Z,44.48
2018-12-01T15:38:18.848Z,49.40
2018-12-01T15:40:50.710Z,47.30
2018-12-01T15:43:19.603Z,46.50
2018-12-01T15:45:48.508Z,48.17
2018-12-01T15:48:17.801Z,46.75
2018-12-01T15:50:46.762Z,47.67
2018-12-01T15:53:15.938Z,45.58
2018-12-01T15:55:44.862Z,46.02
2018-12-01T15:58:13.729Z,45.52
2018-12-01T16:00:43.563Z,49.85
2018-12-01T16:03:12.426Z,52.30
2018-12-01T16:05:41.418Z,49.08
2018-12-01T16:08:11.229Z,49.65
2018-12-01T16:10:40.254Z,47.48
2018-12-01T16:13:15.565Z,49.35
2018-12-01T16:15:49.835Z,44.93
2018-12-01T16:18:18.728Z,50.63
2018-12-01T16:20:47.713Z,50.30
2018-12-01T16:23:16.613Z,55.45
2018-12-01T16:25:45.545Z,50.78
2018-12-01T16:28:14.423Z,54.00
2018-12-01T16:30:47.887Z,50.00
2018-12-01T16:33:19.045Z,51.50
2018-12-01T16:35:49.522Z,53.73
2018-12-01T16:38:24.305Z,54.23
2018-12-01T16:40:59.651Z,51.90
2018-12-01T16:43:31.641Z,52.65
2018-12-01T16:46:00.552Z,49.63
2018-12-01T16:48:29.418Z,51.53
2018-12-01T16:50:58.317Z,53.05
2018-12-01T16:53:27.203Z,50.52
2018-12-01T16:55:56.074Z,49.77
2018-12-01T16:58:24.968Z,50.92
2018-12-01T17:00:53.894Z,49.45
2018-12-01T17:03:22.760Z,51.30
2018-12-01T17:05:54.739Z,51.83
2018-12-01T17:08:23.653Z,50.80
2018-12-01T17:10:52.634Z,53.40
2018-12-01T17:13:21.526Z,53.10
2018-12-01T17:15:50.434Z,52.95
2018-12-01T17:18:19.562Z,53.30
2018-12-01T17:20:48.700Z,49.73
2018-12-01T17:23:17.851Z,52.50
2018-12-01T17:25:46.782Z,47.65
2018-12-01T17:28:18.668Z,55.60
2018-12-01T17:30:48.360Z,53.90
2018-12-01T17:33:17.350Z,56.92
2018-12-01T17:35:46.233Z,58.90
2018-12-01T17:38:18.622Z,59.25
2018-12-01T17:41:08.330Z,59.20
2018-12-01T17:44:09.574Z,55.23
2018-12-01T17:46:38.562Z,58.05
2018-12-01T17:49:07.705Z,53.78
2018-12-01T17:51:36.631Z,54.85
2018-12-01T17:54:15.282Z,54.60
2018-12-01T17:56:44.237Z,57.78
2018-12-01T17:59:14.129Z,56.65
2018-12-01T18:01:43.078Z,53.38
2018-12-01T18:04:11.957Z,55.52
2018-12-01T18:06:40.803Z,55.98
2018-12-01T18:09:09.942Z,55.55
2018-12-01T18:11:39.115Z,56.18
2018-12-01T18:14:09.966Z,57.95
2018-12-01T18:16:39.209Z,59.25
2018-12-01T18:19:08.088Z,58.73
2018-12-01T18:21:37.010Z,60.23
2018-12-01T18:24:06.144Z,60.30
2018-12-01T18:26:34.974Z,60.40
2018-12-01T18:29:04.136Z,61.20
2018-12-01T18:31:33.085Z,61.65
2018-12-01T18:34:07.487Z,59.98
2018-12-01T18:36:36.377Z,60.00
2018-12-01T18:39:10.766Z,58.87
2018-12-01T18:41:39.735Z,55.98
2018-12-01T18:44:08.691Z,56.40
2018-12-01T18:46:37.574Z,55.48
2018-12-01T18:49:07.519Z,55.12
2018-12-01T18:51:36.437Z,56.48
2018-12-01T18:54:05.810Z,56.15
2018-12-01T18:56:34.696Z,59.27
2018-12-01T18:59:05.759Z,54.48
2018-12-01T19:01:35.052Z,53.45
2018-12-01T19:04:04.166Z,52.23
2018-12-01T19:06:33.015Z,52.78
2018-12-01T19:09:01.865Z,53.17
2018-12-01T19:11:30.830Z,55.63
2018-12-01T19:13:59.679Z,59.75
2018-12-01T19:16:28.563Z,55.88
2018-12-01T19:18:57.419Z,58.48
2018-12-01T19:21:26.374Z,60.48
2018-12-01T19:24:07.230Z,52.90
2018-12-01T19:26:36.098Z,59.67
2018-12-01T19:29:05.851Z,63.83
2018-12-01T19:31:34.709Z,60.95
2018-12-01T19:34:03.646Z,57.30
2018-12-01T19:36:32.483Z,57.13
2018-12-01T19:39:01.334Z,55.83
2018-12-01T19:41:30.526Z,59.10
2018-12-01T19:43:59.430Z,53.73
2018-12-01T19:46:28.311Z,51.18
2018-12-01T19:48:57.163Z,51.10
2018-12-01T19:51:26.090Z,52.75
2018-12-01T19:53:54.964Z,52.70
2018-12-01T19:56:24.525Z,51.92
2018-12-01T19:58:53.382Z,53.75
2018-12-01T20:01:22.552Z,53.38
2018-12-01T20:03:51.430Z,51.55
2018-12-01T20:06:20.366Z,51.68
2018-12-01T20:08:49.294Z,51.40
2018-12-01T20:11:25.019Z,53.33
2018-12-01T20:13:53.968Z,55.40
2018-12-01T20:16:34.951Z,52.05
2018-12-01T20:19:04.533Z,55.95
2018-12-01T20:21:33.528Z,55.17
2018-12-01T20:24:02.941Z,53.95
2018-12-01T20:26:31.910Z,53.60
2018-12-01T20:29:00.818Z,54.27
2018-12-01T20:31:29.874Z,51.42
2018-12-01T20:34:00.790Z,55.67
2018-12-01T20:36:37.170Z,51.33
2018-12-01T20:39:16.210Z,52.05
2018-12-01T20:41:45.166Z,49.75
2018-12-01T20:44:14.041Z,50.50
2018-12-01T20:46:42.938Z,51.63
2018-12-01T20:49:11.805Z,51.08
2018-12-01T20:51:40.746Z,51.40
2018-12-01T20:54:25.908Z,50.33
2018-12-01T20:57:02.885Z,50.45
2018-12-01T20:59:31.767Z,50.43
2018-12-01T21:02:00.717Z,50.95
2018-12-01T21:04:29.914Z,50.20
2018-12-01T21:06:58.794Z,49.75
2018-12-01T21:09:27.702Z,52.33
2018-12-01T21:11:56.655Z,53.30
2018-12-01T21:14:25.576Z,53.68
2018-12-01T21:16:54.656Z,57.03
2018-12-01T21:19:24.469Z,53.52
2018-12-01T21:21:53.430Z,53.55
2018-12-01T21:24:22.351Z,53.40
2018-12-01T21:26:51.190Z,52.55
2018-12-01T21:29:20.053Z,55.40
2018-12-01T21:31:48.990Z,52.60
2018-12-01T21:34:17.850Z,54.80
2018-12-01T21:36:46.770Z,56.00
2018-12-01T21:39:15.610Z,49.67
2018-12-01T21:41:44.581Z,50.10
2018-12-01T21:44:14.250Z,53.65
2018-12-01T21:46:43.310Z,53.52
2018-12-01T21:49:12.214Z,53.58
2018-12-01T21:51:41.171Z,51.63
2018-12-01T21:54:10.050Z,51.73
2018-12-01T21:56:38.906Z,53.95
2018-12-01T21:59:12.175Z,54.55
2018-12-01T22:01:53.370Z,52.15
2018-12-01T22:04:22.242Z,52.20
2018-12-01T22:06:51.118Z,58.85
2018-12-01T22:09:20.011Z,55.28
2018-12-01T22:11:48.951Z,58.08
2018-12-01T22:14:17.806Z,56.98
2018-12-01T22:16:46.670Z,60.43
2018-12-01T22:19:15.589Z,55.73
2018-12-01T22:21:45.058Z,57.55
2018-12-01T22:24:13.902Z,58.13
2018-12-01T22:26:42.738Z,57.65
2018-12-01T22:29:11.740Z,57.85
2018-12-01T22:31:40.667Z,56.95
2018-12-01T22:34:09.525Z,58.48
2018-12-01T22:36:38.391Z,58.17
2018-12-01T22:39:10.245Z,56.58
2018-12-01T22:41:39.144Z,55.88
2018-12-01T22:44:07.974Z,54.88
2018-12-01T22:46:37.194Z,54.80
2018-12-01T22:49:06.491Z,57.85
2018-12-01T22:51:35.405Z,53.38
2018-12-01T22:54:04.921Z,53.50
2018-12-01T22:56:34.497Z,53.85
2018-12-01T22:59:03.559Z,53.70
2018-12-01T23:01:33.318Z,53.65
2018-12-01T23:04:02.202Z,52.73
2018-12-01T23:06:31.126Z,55.28
2018-12-01T23:08:59.970Z,53.45
2018-12-01T23:11:28.906Z,56.83
2018-12-01T23:13:57.758Z,55.17
2018-12-01T23:16:26.588Z,54.23
2018-12-01T23:18:55.673Z,55.08
2018-12-01T23:21:24.429Z,52.55
2018-12-01T23:23:53.314Z,52.50
2018-12-01T23:26:22.167Z,53.58
2018-12-01T23:28:51.130Z,52.10
2018-12-01T23:31:19.973Z,48.00
2018-12-01T23:33:48.849Z,53.78
2018-12-01T23:36:17.698Z,53.15
2018-12-01T23:38:46.562Z,54.25
2018-12-01T23:41:15.456Z,52.40
2018-12-01T23:43:44.306Z,54.38
2018-12-01T23:46:13.187Z,55.65
2018-12-01T23:48:42.055Z,53.78
2018-12-01T23:51:11.042Z,54.15
2018-12-01T23:53:39.925Z,54.40
2018-12-01T23:56:08.805Z,50.43
2018-12-01T23:58:37.618Z,55.80
